La rose des vents
Donnes mto: Semaine 05/05/08 - 11/05/08 (S 19)
Date Horaire Temp. E. Hum. E. P.atmo. Pluie Vent 1mn Direction Ensoleilleme Ev.Tr. Solaire P. de rose Temp au vent Rafales
05/05/2008 00:00 15,0 C 87 % 1015,9 hPa 0,0 l/m 1,1 km/h (1 Bft) O-NO 0,00 h 0,025 mm 0 W/m 13,0 C 15,0 C 2,2 km/h (1 Bft)
05/05/2008 01:00 14,7 C 89 % 1015,7 hPa 0,0 l/m 0,7 km/h (0 Bft) O-NO 0,00 h 0,025 mm 0 W/m 12,9 C 14,7 C 1,4 km/h (1 Bft)
05/05/2008 02:00 14,2 C 89 % 1015,5 hPa 0,0 l/m 0,2 km/h (0 Bft) O-NO 0,00 h 0,025 mm 0 W/m 12,4 C 14,2 C 0,5 km/h (0 Bft)
05/05/2008 03:00 14,0 C 90 % 1015,2 hPa 0,0 l/m 0,2 km/h (0 Bft) O-NO 0,00 h 0,025 mm 0 W/m 12,4 C 14,0 C 0,6 km/h (0 Bft)
05/05/2008 04:00 13,4 C 91 % 1015,2 hPa 0,0 l/m 0,9 km/h (0 Bft) O-NO 0,00 h 0,025 mm 0 W/m 11,9 C 13,4 C 1,4 km/h (1 Bft)
05/05/2008 05:00 13,1 C 91 % 1015,1 hPa 0,0 l/m 0,7 km/h (0 Bft) O-NO 0,00 h 0,025 mm 0 W/m 11,6 C 13,1 C 1,4 km/h (1 Bft)
05/05/2008 06:00 13,2 C 92 % 1015,1 hPa 0,0 l/m 5,5 km/h (1 Bft) O 0,03 h 0,000 mm 19 W/m 11,9 C 13,2 C 7,1 km/h (2 Bft)
05/05/2008 07:00 13,9 C 92 % 1015,2 hPa 0,0 l/m 4,2 km/h (1 Bft) O 0,30 h 0,025 mm 99 W/m 12,6 C 13,9 C 6,2 km/h (2 Bft)
05/05/2008 08:00 16,0 C 81 % 1015,6 hPa 0,0 l/m 0,8 km/h (0 Bft) O-NO 0,82 h 0,051 mm 281 W/m 12,7 C 16,0 C 2,3 km/h (1 Bft)
05/05/2008 09:00 18,6 C 67 % 1015,7 hPa 0,0 l/m 2,6 km/h (1 Bft) E 1,00 h 0,152 mm 471 W/m 12,3 C 18,6 C 5,0 km/h (1 Bft)
05/05/2008 10:00 20,2 C 59 % 1015,9 hPa 0,0 l/m 6,1 km/h (2 Bft) E 1,00 h 0,279 mm 635 W/m 11,9 C 20,2 C 9,4 km/h (2 Bft)
05/05/2008 11:00 20,6 C 58 % 1016,1 hPa 0,0 l/m 9,6 km/h (2 Bft) E 1,00 h 0,406 mm 756 W/m 12,1 C 20,6 C 14,4 km/h (3 Bft)
05/05/2008 12:00 20,8 C 55 % 1016,1 hPa 0,0 l/m 7,0 km/h (2 Bft) E 1,00 h 0,508 mm 834 W/m 11,4 C 20,8 C 10,9 km/h (2 Bft)
05/05/2008 13:00 22,0 C 51 % 1015,9 hPa 0,0 l/m 9,2 km/h (2 Bft) E-NE 1,00 h 0,533 mm 849 W/m 11,4 C 22,0 C 14,0 km/h (3 Bft)
05/05/2008 14:00 21,9 C 54 % 1015,9 hPa 0,0 l/m 9,0 km/h (2 Bft) E-NE 1,00 h 0,584 mm 828 W/m 12,2 C 21,9 C 13,6 km/h (3 Bft)
05/05/2008 15:00 22,6 C 48 % 1015,9 hPa 0,0 l/m 10,6 km/h (2 Bft) E-NE 1,00 h 0,559 mm 799 W/m 11,0 C 22,6 C 15,4 km/h (3 Bft)
05/05/2008 16:00 21,2 C 49 % 1015,9 hPa 0,0 l/m 10,0 km/h (2 Bft) E-NE 0,52 h 0,559 mm 468 W/m 10,2 C 21,2 C 14,7 km/h (3 Bft)
05/05/2008 17:00 18,6 C 55 % 1016,3 hPa 0,0 l/m 3,6 km/h (1 Bft) N-NE 0,00 h 0,356 mm 79 W/m 9,3 C 18,6 C 6,3 km/h (2 Bft)
05/05/2008 18:00 17,3 C 62 % 1016,5 hPa 0,2 l/m 2,5 km/h (1 Bft) N 0,00 h 0,076 mm 36 W/m 9,9 C 17,3 C 4,9 km/h (1 Bft)
05/05/2008 19:00 15,7 C 75 % 1016,9 hPa 0,8 l/m 3,1 km/h (1 Bft) N-NE 0,00 h 0,051 mm 14 W/m 11,3 C 15,7 C 5,2 km/h (1 Bft)
05/05/2008 20:00 14,5 C 85 % 1017,5 hPa 3,6 l/m 4,0 km/h (1 Bft) O-NO 0,00 h 0,025 mm 0 W/m 12,1 C 14,5 C 6,3 km/h (2 Bft)
05/05/2008 21:00 13,9 C 90 % 1018,0 hPa 1,6 l/m 2,3 km/h (1 Bft) E-NE 0,00 h 0,025 mm 0 W/m 12,2 C 13,9 C 3,8 km/h (1 Bft)
05/05/2008 22:00 13,9 C 92 % 1018,5 hPa 1,8 l/m 4,1 km/h (1 Bft) N 0,00 h 0,025 mm 0 W/m 12,6 C 13,9 C 6,5 km/h (2 Bft)
05/05/2008 23:00 13,9 C 93 % 1018,8 hPa 0,2 l/m 3,7 km/h (1 Bft) NO 0,00 h 0,025 mm 0 W/m 12,8 C 13,9 C 6,2 km/h (2 Bft)
06/05/2008 00:00 14,1 C 94 % 1019,0 hPa 0,0 l/m 3,6 km/h (1 Bft) N 0,00 h 0,025 mm 0 W/m 13,1 C 14,1 C 6,0 km/h (2 Bft)
06/05/2008 01:00 14,1 C 94 % 1018,9 hPa 0,0 l/m 3,5 km/h (1 Bft) N 0,00 h 0,025 mm 0 W/m 13,1 C 14,1 C 6,2 km/h (2 Bft)
06/05/2008 02:00 13,8 C 94 % 1018,8 hPa 0,0 l/m 1,8 km/h (1 Bft) N-NE 0,00 h 0,025 mm 0 W/m 12,8 C 13,8 C 3,9 km/h (1 Bft)
06/05/2008 03:00 13,3 C 94 % 1018,6 hPa 0,0 l/m 1,7 km/h (1 Bft) N 0,00 h 0,000 mm 0 W/m 12,4 C 13,3 C 3,9 km/h (1 Bft)
06/05/2008 04:00 13,0 C 94 % 1018,4 hPa 0,0 l/m 1,9 km/h (1 Bft) N-NO 0,00 h 0,000 mm 0 W/m 12,0 C 13,0 C 3,5 km/h (1 Bft)
06/05/2008 05:00 13,0 C 93 % 1018,4 hPa 0,0 l/m 1,4 km/h (1 Bft) N 0,00 h 0,000 mm 0 W/m 11,9 C 13,0 C 2,8 km/h (1 Bft)
06/05/2008 06:00 13,0 C 92 % 1018,3 hPa 0,0 l/m 1,3 km/h (1 Bft) NE 0,02 h 0,000 mm 16 W/m 11,8 C 13,0 C 2,6 km/h (1 Bft)
06/05/2008 07:00 13,2 C 92 % 1018,5 hPa 0,0 l/m 0,6 km/h (0 Bft) NE 0,00 h 0,000 mm 54 W/m 11,8 C 13,2 C 1,3 km/h (1 Bft)
06/05/2008 08:00 14,4 C 89 % 1018,7 hPa 0,0 l/m 0,7 km/h (0 Bft) NE 0,38 h 0,025 mm 208 W/m 12,5 C 14,4 C 2,4 km/h (1 Bft)
06/05/2008 09:00 16,4 C 79 % 1018,9 hPa 0,0 l/m 1,4 km/h (1 Bft) E 0,70 h 0,102 mm 351 W/m 12,7 C 16,4 C 3,0 km/h (1 Bft)
06/05/2008 10:00 18,4 C 71 % 1019,0 hPa 0,0 l/m 8,6 km/h (2 Bft) E-NE 0,92 h 0,203 mm 587 W/m 13,0 C 18,4 C 12,6 km/h (3 Bft)
06/05/2008 11:00 19,9 C 60 % 1019,3 hPa 0,0 l/m 12,1 km/h (2 Bft) E-NE 1,00 h 0,381 mm 791 W/m 11,9 C 19,9 C 17,4 km/h (3 Bft)
06/05/2008 12:00 19,8 C 62 % 1019,3 hPa 0,0 l/m 8,6 km/h (2 Bft) E 0,93 h 0,533 mm 817 W/m 12,3 C 19,8 C 14,0 km/h (3 Bft)
06/05/2008 13:00 19,4 C 62 % 1019,0 hPa 0,0 l/m 5,3 km/h (1 Bft) E 1,00 h 0,508 mm 832 W/m 12,0 C 19,4 C 9,5 km/h (2 Bft)
06/05/2008 14:00 19,4 C 54 % 1018,9 hPa 0,0 l/m 4,9 km/h (1 Bft) E-SE 0,83 h 0,508 mm 665 W/m 9,9 C 19,4 C 8,5 km/h (2 Bft)
06/05/2008 15:00 19,4 C 44 % 1018,5 hPa 0,0 l/m 3,3 km/h (1 Bft) E-SE 0,65 h 0,406 mm 529 W/m 6,9 C 19,4 C 6,1 km/h (2 Bft)
06/05/2008 16:00 19,8 C 37 % 1018,0 hPa 0,0 l/m 1,8 km/h (1 Bft) E-NE 0,52 h 0,330 mm 416 W/m 4,6 C 19,8 C 3,4 km/h (1 Bft)
06/05/2008 17:00 20,2 C 35 % 1017,5 hPa 0,0 l/m 1,0 km/h (0 Bft) E-NE 0,68 h 0,254 mm 375 W/m 4,4 C 20,2 C 2,4 km/h (1 Bft)
06/05/2008 18:00 20,3 C 36 % 1017,2 hPa 0,0 l/m 1,7 km/h (1 Bft) S-SO 0,98 h 0,229 mm 301 W/m 4,6 C 20,3 C 3,4 km/h (1 Bft)
06/05/2008 19:00 19,7 C 37 % 1016,8 hPa 0,0 l/m 4,0 km/h (1 Bft) SO 0,63 h 0,203 mm 112 W/m 4,5 C 19,7 C 5,5 km/h (1 Bft)
06/05/2008 20:00 17,7 C 46 % 1016,9 hPa 0,0 l/m 4,3 km/h (1 Bft) O-SO 0,02 h 0,102 mm 16 W/m 5,8 C 17,7 C 5,7 km/h (1 Bft)
06/05/2008 21:00 15,9 C 52 % 1017,3 hPa 0,0 l/m 3,0 km/h (1 Bft) O 0,00 h 0,051 mm 0 W/m 6,2 C 15,9 C 4,9 km/h (1 Bft)
06/05/2008 22:00 15,0 C 55 % 1017,8 hPa 0,0 l/m 1,3 km/h (1 Bft) O 0,00 h 0,025 mm 0 W/m 6,1 C 15,0 C 2,1 km/h (1 Bft)
06/05/2008 23:00 14,1 C 59 % 1017,8 hPa 0,0 l/m 1,4 km/h (1 Bft) O 0,00 h 0,051 mm 0 W/m 6,1 C 14,1 C 2,5 km/h (1 Bft)
07/05/2008 00:00 13,8 C 59 % 1017,7 hPa 0,0 l/m 3,3 km/h (1 Bft) O 0,00 h 0,051 mm 0 W/m 6,0 C 13,8 C 4,6 km/h (1 Bft)
07/05/2008 01:00 14,4 C 56 % 1017,4 hPa 0,0 l/m 6,5 km/h (2 Bft) O 0,00 h 0,051 mm 0 W/m 5,8 C 14,4 C 8,4 km/h (2 Bft)
07/05/2008 02:00 13,3 C 61 % 1017,3 hPa 0,0 l/m 4,6 km/h (1 Bft) O 0,00 h 0,076 mm 0 W/m 6,0 C 13,3 C 6,2 km/h (2 Bft)
07/05/2008 03:00 12,8 C 65 % 1017,1 hPa 0,0 l/m 4,1 km/h (1 Bft) N-NO 0,00 h 0,051 mm 0 W/m 6,5 C 12,8 C 6,4 km/h (2 Bft)
07/05/2008 04:00 13,6 C 61 % 1016,9 hPa 0,0 l/m 4,7 km/h (1 Bft) NO 0,00 h 0,051 mm 0 W/m 6,3 C 13,6 C 6,4 km/h (2 Bft)
07/05/2008 05:00 13,8 C 60 % 1016,9 hPa 0,0 l/m 4,0 km/h (1 Bft) NO 0,00 h 0,051 mm 0 W/m 6,3 C 13,8 C 5,7 km/h (1 Bft)
07/05/2008 06:00 13,6 C 63 % 1017,3 hPa 0,0 l/m 4,4 km/h (1 Bft) NO 0,05 h 0,025 mm 18 W/m 6,7 C 13,6 C 6,6 km/h (2 Bft)
07/05/2008 07:00 14,7 C 63 % 1017,7 hPa 0,0 l/m 2,5 km/h (1 Bft) NO 0,35 h 0,025 mm 100 W/m 7,9 C 14,7 C 4,9 km/h (1 Bft)
07/05/2008 08:00 18,2 C 54 % 1017,8 hPa 0,0 l/m 2,2 km/h (1 Bft) N-NO 1,00 h 0,076 mm 321 W/m 8,8 C 18,2 C 4,4 km/h (1 Bft)
07/05/2008 09:00 20,2 C 49 % 1018,2 hPa 0,0 l/m 7,7 km/h (2 Bft) NE 1,00 h 0,203 mm 500 W/m 9,0 C 20,2 C 11,6 km/h (2 Bft)
07/05/2008 10:00 20,8 C 44 % 1018,3 hPa 0,0 l/m 10,1 km/h (2 Bft) E 1,00 h 0,356 mm 663 W/m 8,1 C 20,8 C 15,2 km/h (3 Bft)
07/05/2008 11:00 21,4 C 44 % 1018,3 hPa 0,0 l/m 10,5 km/h (2 Bft) E 1,00 h 0,483 mm 786 W/m 8,6 C 21,4 C 16,0 km/h (3 Bft)
07/05/2008 12:00 21,3 C 45 % 1018,3 hPa 0,0 l/m 8,5 km/h (2 Bft) E 1,00 h 0,559 mm 866 W/m 8,8 C 21,3 C 14,1 km/h (3 Bft)
07/05/2008 13:00 20,8 C 47 % 1018,3 hPa 0,0 l/m 8,9 km/h (2 Bft) E 1,00 h 0,584 mm 890 W/m 9,0 C 20,8 C 14,1 km/h (3 Bft)
07/05/2008 14:00 21,2 C 49 % 1018,1 hPa 0,0 l/m 9,4 km/h (2 Bft) E-NE 1,00 h 0,584 mm 858 W/m 9,9 C 21,2 C 14,3 km/h (3 Bft)
07/05/2008 15:00 20,9 C 47 % 1017,7 hPa 0,0 l/m 6,1 km/h (2 Bft) E 1,00 h 0,584 mm 779 W/m 9,1 C 20,9 C 10,2 km/h (2 Bft)
07/05/2008 16:00 20,9 C 43 % 1017,1 hPa 0,0 l/m 4,9 km/h (1 Bft) E 1,00 h 0,508 mm 651 W/m 8,0 C 20,9 C 8,2 km/h (2 Bft)
07/05/2008 17:00 21,4 C 40 % 1016,6 hPa 0,0 l/m 3,3 km/h (1 Bft) E 1,00 h 0,432 mm 485 W/m 7,0 C 21,4 C 6,1 km/h (2 Bft)
07/05/2008 18:00 21,3 C 39 % 1016,2 hPa 0,0 l/m 1,6 km/h (1 Bft) E 0,97 h 0,330 mm 294 W/m 6,7 C 21,3 C 3,5 km/h (1 Bft)
07/05/2008 19:00 20,1 C 43 % 1015,7 hPa 0,0 l/m 0,1 km/h (0 Bft) E-SE 0,48 h 0,203 mm 108 W/m 7,0 C 20,1 C 1,1 km/h (1 Bft)
07/05/2008 20:00 17,7 C 46 % 1015,7 hPa 0,0 l/m 0,4 km/h (0 Bft) E-SE 0,00 h 0,076 mm 16 W/m 6,1 C 17,7 C 0,9 km/h (0 Bft)
07/05/2008 21:00 16,8 C 51 % 1015,9 hPa 0,0 l/m 1,8 km/h (1 Bft) O-NO 0,00 h 0,025 mm 0 W/m 6,6 C 16,8 C 3,0 km/h (1 Bft)
07/05/2008 22:00 16,2 C 56 % 1016,1 hPa 0,0 l/m 2,3 km/h (1 Bft) NO 0,00 h 0,051 mm 0 W/m 7,4 C 16,2 C 3,8 km/h (1 Bft)
07/05/2008 23:00 16,2 C 57 % 1015,8 hPa 0,0 l/m 4,4 km/h (1 Bft) NO 0,00 h 0,051 mm 0 W/m 7,6 C 16,2 C 6,7 km/h (2 Bft)
08/05/2008 00:00 16,0 C 55 % 1015,7 hPa 0,0 l/m 3,3 km/h (1 Bft) NO 0,00 h 0,051 mm 0 W/m 6,9 C 16,0 C 5,3 km/h (1 Bft)
08/05/2008 01:00 16,2 C 55 % 1016,0 hPa 0,0 l/m 1,9 km/h (1 Bft) NO 0,00 h 0,051 mm 0 W/m 7,1 C 16,2 C 3,5 km/h (1 Bft)
08/05/2008 02:00 15,5 C 58 % 1015,8 hPa 0,0 l/m 4,5 km/h (1 Bft) NO 0,00 h 0,051 mm 0 W/m 7,3 C 15,5 C 6,9 km/h (2 Bft)
08/05/2008 03:00 15,5 C 58 % 1015,6 hPa 0,0 l/m 4,3 km/h (1 Bft) NO 0,00 h 0,051 mm 0 W/m 7,2 C 15,5 C 6,2 km/h (2 Bft)
08/05/2008 04:00 14,4 C 61 % 1015,4 hPa 0,0 l/m 4,0 km/h (1 Bft) N-NO 0,00 h 0,051 mm 0 W/m 7,0 C 14,4 C 5,4 km/h (1 Bft)
08/05/2008 05:00 13,8 C 64 % 1015,1 hPa 0,0 l/m 3,8 km/h (1 Bft) SO 0,00 h 0,051 mm 0 W/m 7,1 C 13,8 C 4,9 km/h (1 Bft)
08/05/2008 06:00 13,3 C 65 % 1015,2 hPa 0,0 l/m 3,3 km/h (1 Bft) SO 0,03 h 0,025 mm 18 W/m 6,8 C 13,3 C 4,7 km/h (1 Bft)
08/05/2008 07:00 14,0 C 65 % 1015,4 hPa 0,0 l/m 3,0 km/h (1 Bft) NO 0,30 h 0,025 mm 112 W/m 7,4 C 14,0 C 4,7 km/h (1 Bft)
08/05/2008 08:00 16,7 C 59 % 1015,6 hPa 0,0 l/m 0,7 km/h (0 Bft) O-SO 1,00 h 0,076 mm 315 W/m 8,8 C 16,7 C 2,0 km/h (1 Bft)
08/05/2008 09:00 18,8 C 58 % 1015,8 hPa 0,0 l/m 4,2 km/h (1 Bft) E 1,00 h 0,178 mm 497 W/m 10,2 C 18,8 C 7,0 km/h (2 Bft)
08/05/2008 10:00 20,1 C 53 % 1016,1 hPa 0,0 l/m 6,2 km/h (2 Bft) E 1,00 h 0,305 mm 658 W/m 10,3 C 20,1 C 9,7 km/h (2 Bft)
08/05/2008 11:00 21,0 C 49 % 1016,1 hPa 0,0 l/m 6,5 km/h (2 Bft) E 1,00 h 0,432 mm 792 W/m 9,9 C 21,0 C 10,9 km/h (2 Bft)
08/05/2008 12:00 21,6 C 42 % 1016,1 hPa 0,0 l/m 7,1 km/h (2 Bft) E-NE 1,00 h 0,508 mm 869 W/m 8,2 C 21,6 C 11,1 km/h (2 Bft)
08/05/2008 13:00 22,4 C 42 % 1015,9 hPa 0,0 l/m 7,6 km/h (2 Bft) E-NE 1,00 h 0,584 mm 895 W/m 8,9 C 22,4 C 11,6 km/h (2 Bft)
08/05/2008 14:00 22,4 C 44 % 1015,5 hPa 0,0 l/m 6,2 km/h (2 Bft) E 1,00 h 0,610 mm 854 W/m 9,4 C 22,4 C 10,1 km/h (2 Bft)
08/05/2008 15:00 22,2 C 47 % 1015,2 hPa 0,0 l/m 6,1 km/h (2 Bft) E 1,00 h 0,559 mm 784 W/m 10,3 C 22,2 C 9,8 km/h (2 Bft)
08/05/2008 16:00 22,1 C 44 % 1014,7 hPa 0,0 l/m 3,2 km/h (1 Bft) E-SE 1,00 h 0,508 mm 658 W/m 9,3 C 22,1 C 6,0 km/h (2 Bft)
08/05/2008 17:00 22,6 C 38 % 1014,5 hPa 0,0 l/m 2,6 km/h (1 Bft) E-SE 1,00 h 0,432 mm 473 W/m 7,4 C 22,6 C 4,9 km/h (1 Bft)
08/05/2008 18:00 21,8 C 42 % 1014,0 hPa 0,0 l/m 0,7 km/h (0 Bft) E-SE 0,83 h 0,330 mm 243 W/m 8,2 C 21,8 C 2,3 km/h (1 Bft)
08/05/2008 19:00 20,5 C 43 % 1013,7 hPa 0,0 l/m 1,3 km/h (1 Bft) E-SE 0,13 h 0,152 mm 99 W/m 7,6 C 20,5 C 2,4 km/h (1 Bft)
08/05/2008 20:00 18,5 C 58 % 1013,6 hPa 0,0 l/m 0,4 km/h (0 Bft) E-SE 0,03 h 0,076 mm 25 W/m 10,1 C 18,5 C 1,2 km/h (1 Bft)
08/05/2008 21:00 16,4 C 60 % 1014,0 hPa 0,0 l/m 3,6 km/h (1 Bft) N-NO 0,00 h 0,025 mm 0 W/m 8,7 C 16,4 C 5,4 km/h (1 Bft)
08/05/2008 22:00 15,6 C 59 % 1014,1 hPa 0,0 l/m 1,1 km/h (1 Bft) N-NO 0,00 h 0,025 mm 0 W/m 7,7 C 15,6 C 2,5 km/h (1 Bft)
08/05/2008 23:00 14,4 C 64 % 1014,0 hPa 0,0 l/m 0,5 km/h (0 Bft) N-NO 0,00 h 0,051 mm 0 W/m 7,6 C 14,4 C 1,1 km/h (0 Bft)
09/05/2008 00:00 14,0 C 66 % 1014,0 hPa 0,0 l/m 0,7 km/h (0 Bft) N-NO 0,00 h 0,025 mm 0 W/m 7,7 C 14,0 C 1,5 km/h (1 Bft)
09/05/2008 01:00 13,6 C 64 % 1013,6 hPa 0,0 l/m 1,8 km/h (1 Bft) E-NE 0,00 h 0,025 mm 0 W/m 6,9 C 13,6 C 2,9 km/h (1 Bft)
09/05/2008 02:00 13,2 C 64 % 1013,2 hPa 0,0 l/m 2,3 km/h (1 Bft) O 0,00 h 0,025 mm 0 W/m 6,6 C 13,2 C 3,0 km/h (1 Bft)
09/05/2008 03:00 13,3 C 62 % 1012,9 hPa 0,0 l/m 2,3 km/h (1 Bft) O 0,00 h 0,025 mm 0 W/m 6,2 C 13,3 C 3,9 km/h (1 Bft)
09/05/2008 04:00 13,2 C 60 % 1012,9 hPa 0,0 l/m 2,8 km/h (1 Bft) O 0,00 h 0,051 mm 0 W/m 5,7 C 13,2 C 3,9 km/h (1 Bft)
09/05/2008 05:00 13,8 C 56 % 1012,9 hPa 0,0 l/m 2,6 km/h (1 Bft) NO 0,00 h 0,051 mm 0 W/m 5,2 C 13,8 C 4,3 km/h (1 Bft)
09/05/2008 06:00 14,1 C 56 % 1012,7 hPa 0,0 l/m 4,6 km/h (1 Bft) N-NE 0,17 h 0,025 mm 22 W/m 5,4 C 14,1 C 6,7 km/h (2 Bft)
09/05/2008 07:00 15,9 C 54 % 1012,9 hPa 0,0 l/m 5,9 km/h (2 Bft) N-NE 0,40 h 0,051 mm 112 W/m 6,5 C 15,9 C 9,2 km/h (2 Bft)
09/05/2008 08:00 18,4 C 48 % 1013,2 hPa 0,0 l/m 7,2 km/h (2 Bft) NE 1,00 h 0,102 mm 285 W/m 7,3 C 18,4 C 11,3 km/h (2 Bft)
09/05/2008 09:00 20,2 C 47 % 1013,2 hPa 0,0 l/m 12,6 km/h (3 Bft) E-NE 1,00 h 0,229 mm 476 W/m 8,5 C 20,2 C 17,3 km/h (3 Bft)
09/05/2008 10:00 21,3 C 45 % 1013,4 hPa 0,0 l/m 12,5 km/h (3 Bft) E-NE 0,92 h 0,381 mm 582 W/m 8,8 C 21,3 C 17,9 km/h (3 Bft)
09/05/2008 11:00 21,9 C 45 % 1013,1 hPa 0,0 l/m 10,9 km/h (2 Bft) E-NE 1,00 h 0,457 mm 708 W/m 9,5 C 21,9 C 16,1 km/h (3 Bft)
09/05/2008 12:00 22,6 C 42 % 1012,9 hPa 0,0 l/m 14,4 km/h (3 Bft) E 1,00 h 0,508 mm 837 W/m 9,0 C 22,6 C 19,9 km/h (4 Bft)
09/05/2008 13:00 21,8 C 43 % 1012,8 hPa 0,0 l/m 13,4 km/h (3 Bft) E-NE 0,92 h 0,635 mm 651 W/m 8,8 C 21,8 C 19,5 km/h (3 Bft)
09/05/2008 14:00 22,1 C 43 % 1012,4 hPa 0,0 l/m 13,7 km/h (3 Bft) E-NE 1,00 h 0,508 mm 703 W/m 8,8 C 22,1 C 19,8 km/h (4 Bft)
09/05/2008 15:00 22,4 C 45 % 1012,3 hPa 0,0 l/m 15,3 km/h (3 Bft) E-NE 1,00 h 0,533 mm 765 W/m 10,0 C 22,4 C 20,6 km/h (4 Bft)
09/05/2008 16:00 21,0 C 54 % 1012,0 hPa 0,0 l/m 10,0 km/h (2 Bft) E-NE 0,77 h 0,584 mm 454 W/m 11,3 C 21,0 C 15,3 km/h (3 Bft)
09/05/2008 17:00 20,8 C 51 % 1011,6 hPa 0,0 l/m 10,2 km/h (2 Bft) E-NE 0,62 h 0,330 mm 345 W/m 10,3 C 20,8 C 15,0 km/h (3 Bft)
09/05/2008 18:00 19,9 C 48 % 1011,1 hPa 0,0 l/m 7,0 km/h (2 Bft) NE 0,25 h 0,279 mm 196 W/m 8,4 C 19,9 C 10,7 km/h (2 Bft)
09/05/2008 19:00 19,1 C 46 % 1010,7 hPa 0,0 l/m 7,1 km/h (2 Bft) NE 0,07 h 0,178 mm 81 W/m 7,2 C 19,1 C 10,7 km/h (2 Bft)
09/05/2008 20:00 18,2 C 50 % 1010,9 hPa 0,0 l/m 8,0 km/h (2 Bft) E-NE 0,00 h 0,102 mm 16 W/m 7,5 C 18,2 C 11,4 km/h (2 Bft)
09/05/2008 21:00 17,7 C 52 % 1011,3 hPa 0,0 l/m 5,1 km/h (1 Bft) NE 0,00 h 0,076 mm 0 W/m 7,7 C 17,7 C 7,5 km/h (2 Bft)
09/05/2008 22:00 17,6 C 49 % 1011,3 hPa 0,0 l/m 7,2 km/h (2 Bft) NE 0,00 h 0,076 mm 0 W/m 6,9 C 17,6 C 10,4 km/h (2 Bft)
09/05/2008 23:00 17,2 C 50 % 1011,1 hPa 0,0 l/m 7,1 km/h (2 Bft) NE 0,00 h 0,076 mm 0 W/m 6,6 C 17,2 C 10,0 km/h (2 Bft)
10/05/2008 00:00 17,1 C 49 % 1011,1 hPa 0,0 l/m 6,1 km/h (2 Bft) N-NE 0,00 h 0,076 mm 0 W/m 6,2 C 17,1 C 9,4 km/h (2 Bft)
10/05/2008 01:00 17,1 C 48 % 1011,3 hPa 0,0 l/m 7,1 km/h (2 Bft) NE 0,00 h 0,076 mm 0 W/m 6,1 C 17,1 C 10,7 km/h (2 Bft)
10/05/2008 02:00 17,2 C 48 % 1011,2 hPa 0,0 l/m 9,3 km/h (2 Bft) NE 0,00 h 0,076 mm 0 W/m 6,0 C 17,2 C 14,3 km/h (3 Bft)
10/05/2008 03:00 17,0 C 48 % 1010,9 hPa 0,0 l/m 6,0 km/h (2 Bft) N-NE 0,00 h 0,102 mm 0 W/m 5,8 C 17,0 C 9,1 km/h (2 Bft)
10/05/2008 04:00 16,6 C 49 % 1010,6 hPa 0,0 l/m 5,5 km/h (1 Bft) N-NE 0,00 h 0,076 mm 0 W/m 5,9 C 16,6 C 9,2 km/h (2 Bft)
10/05/2008 05:00 17,1 C 49 % 1010,4 hPa 0,0 l/m 8,6 km/h (2 Bft) NE 0,00 h 0,076 mm 0 W/m 6,2 C 17,1 C 12,6 km/h (3 Bft)
10/05/2008 06:00 16,8 C 54 % 1010,4 hPa 0,0 l/m 8,0 km/h (2 Bft) E-NE 0,03 h 0,076 mm 21 W/m 7,5 C 16,8 C 11,1 km/h (2 Bft)
10/05/2008 07:00 16,7 C 61 % 1010,7 hPa 0,0 l/m 8,5 km/h (2 Bft) E-NE 0,00 h 0,076 mm 87 W/m 9,2 C 16,7 C 12,5 km/h (3 Bft)
10/05/2008 08:00 18,8 C 62 % 1010,7 hPa 0,0 l/m 12,8 km/h (3 Bft) NE 0,95 h 0,102 mm 293 W/m 11,3 C 18,8 C 18,3 km/h (3 Bft)
10/05/2008 09:00 20,6 C 52 % 1010,7 hPa 0,0 l/m 24,1 km/h (4 Bft) E-NE 1,00 h 0,254 mm 439 W/m 10,3 C 20,6 C 33,4 km/h (5 Bft)
10/05/2008 10:00 21,9 C 47 % 1010,7 hPa 0,0 l/m 27,0 km/h (4 Bft) E-NE 1,00 h 0,432 mm 674 W/m 9,9 C 21,9 C 37,0 km/h (5 Bft)
10/05/2008 11:00 22,4 C 42 % 1011,1 hPa 0,0 l/m 30,6 km/h (5 Bft) E-NE 1,00 h 0,610 mm 784 W/m 8,9 C 22,4 C 41,1 km/h (6 Bft)
10/05/2008 12:00 23,4 C 40 % 1011,0 hPa 0,0 l/m 27,8 km/h (4 Bft) E-NE 1,00 h 0,737 mm 893 W/m 8,9 C 23,4 C 38,3 km/h (5 Bft)
10/05/2008 13:00 23,1 C 38 % 1010,8 hPa 0,0 l/m 31,6 km/h (5 Bft) E-NE 1,00 h 0,813 mm 862 W/m 8,1 C 23,1 C 42,2 km/h (6 Bft)
10/05/2008 14:00 23,4 C 35 % 1010,6 hPa 0,0 l/m 35,6 km/h (5 Bft) E-NE 0,92 h 0,813 mm 850 W/m 7,0 C 23,4 C 48,5 km/h (6 Bft)
10/05/2008 15:00 23,8 C 34 % 1010,5 hPa 0,0 l/m 30,7 km/h (5 Bft) E-NE 0,92 h 0,864 mm 752 W/m 7,1 C 23,8 C 42,0 km/h (6 Bft)
10/05/2008 16:00 24,3 C 31 % 1010,2 hPa 0,0 l/m 25,9 km/h (4 Bft) E-NE 1,00 h 0,762 mm 681 W/m 6,0 C 24,3 C 35,9 km/h (5 Bft)
10/05/2008 17:00 23,8 C 34 % 1010,3 hPa 0,0 l/m 13,8 km/h (3 Bft) E-NE 1,00 h 0,686 mm 491 W/m 6,9 C 23,8 C 20,0 km/h (4 Bft)
10/05/2008 18:00 22,9 C 33 % 1010,4 hPa 0,0 l/m 9,7 km/h (2 Bft) E-NE 1,00 h 0,457 mm 303 W/m 5,8 C 22,9 C 14,8 km/h (3 Bft)
10/05/2008 19:00 22,2 C 37 % 1010,6 hPa 0,0 l/m 2,9 km/h (1 Bft) NE 0,80 h 0,279 mm 127 W/m 6,7 C 22,2 C 5,3 km/h (1 Bft)
10/05/2008 20:00 20,0 C 41 % 1011,0 hPa 0,0 l/m 4,5 km/h (1 Bft) NE 0,03 h 0,127 mm 23 W/m 6,3 C 20,0 C 7,1 km/h (2 Bft)
10/05/2008 21:00 18,8 C 43 % 1011,4 hPa 0,0 l/m 3,6 km/h (1 Bft) N 0,00 h 0,051 mm 0 W/m 5,8 C 18,8 C 6,7 km/h (2 Bft)
10/05/2008 22:00 18,1 C 44 % 1011,8 hPa 0,0 l/m 2,3 km/h (1 Bft) N-NE 0,00 h 0,051 mm 0 W/m 5,7 C 18,1 C 4,5 km/h (1 Bft)
10/05/2008 23:00 17,9 C 45 % 1012,1 hPa 0,0 l/m 2,4 km/h (1 Bft) N 0,00 h 0,076 mm 0 W/m 5,7 C 17,9 C 4,7 km/h (1 Bft)
11/05/2008 00:00 17,4 C 48 % 1012,4 hPa 0,0 l/m 2,5 km/h (1 Bft) N-NO 0,00 h 0,076 mm 0 W/m 6,2 C 17,4 C 4,7 km/h (1 Bft)
11/05/2008 01:00 17,1 C 52 % 1012,7 hPa 0,0 l/m 1,8 km/h (1 Bft) N-NO 0,00 h 0,051 mm 0 W/m 7,2 C 17,1 C 3,3 km/h (1 Bft)
11/05/2008 02:00 17,8 C 55 % 1012,4 hPa 0,0 l/m 3,2 km/h (1 Bft) O-SO 0,00 h 0,051 mm 0 W/m 8,6 C 17,8 C 5,1 km/h (1 Bft)
11/05/2008 03:00 17,5 C 56 % 1012,1 hPa 0,0 l/m 4,2 km/h (1 Bft) E-NE 0,00 h 0,051 mm 0 W/m 8,6 C 17,5 C 6,7 km/h (2 Bft)
11/05/2008 04:00 17,2 C 54 % 1011,7 hPa 0,0 l/m 5,6 km/h (1 Bft) NE 0,00 h 0,051 mm 0 W/m 7,9 C 17,2 C 8,8 km/h (2 Bft)
11/05/2008 05:00 16,9 C 53 % 1011,5 hPa 0,0 l/m 12,3 km/h (3 Bft) NE 0,00 h 0,076 mm 0 W/m 7,4 C 16,9 C 18,7 km/h (3 Bft)
11/05/2008 06:00 16,9 C 59 % 1012,1 hPa 0,0 l/m 9,8 km/h (2 Bft) E-NE 0,15 h 0,076 mm 25 W/m 8,9 C 16,9 C 14,2 km/h (3 Bft)
11/05/2008 07:00 17,2 C 64 % 1012,9 hPa 0,0 l/m 3,1 km/h (1 Bft) NE 0,42 h 0,076 mm 135 W/m 10,4 C 17,2 C 5,6 km/h (1 Bft)
11/05/2008 08:00 18,4 C 57 % 1013,2 hPa 0,0 l/m 4,8 km/h (1 Bft) NE 0,22 h 0,102 mm 195 W/m 9,8 C 18,4 C 7,7 km/h (2 Bft)
11/05/2008 09:00 19,6 C 50 % 1013,3 hPa 0,0 l/m 8,6 km/h (2 Bft) NE 0,75 h 0,152 mm 339 W/m 8,9 C 19,6 C 13,3 km/h (3 Bft)
11/05/2008 10:00 20,9 C 42 % 1013,2 hPa 0,0 l/m 14,7 km/h (3 Bft) E-NE 0,68 h 0,254 mm 430 W/m 7,4 C 20,9 C 21,0 km/h (4 Bft)
11/05/2008 11:00 21,7 C 39 % 1012,9 hPa 0,0 l/m 17,9 km/h (3 Bft) E-NE 0,85 h 0,381 mm 533 W/m 7,0 C 21,7 C 25,2 km/h (4 Bft)
11/05/2008 12:00 23,5 C 37 % 1013,0 hPa 0,0 l/m 21,8 km/h (4 Bft) E-NE 1,00 h 0,483 mm 869 W/m 7,9 C 23,5 C 30,4 km/h (5 Bft)
11/05/2008 13:00 23,3 C 37 % 1013,2 hPa 0,0 l/m 25,1 km/h (4 Bft) E-NE 1,00 h 0,737 mm 733 W/m 7,8 C 23,3 C 34,5 km/h (5 Bft)
11/05/2008 14:00 23,7 C 35 % 1012,9 hPa 0,0 l/m 24,5 km/h (4 Bft) E-NE 1,00 h 0,686 mm 793 W/m 7,5 C 23,7 C 33,7 km/h (5 Bft)
11/05/2008 15:00 23,8 C 34 % 1012,8 hPa 0,0 l/m 22,4 km/h (4 Bft) E 1,00 h 0,737 mm 815 W/m 7,0 C 23,8 C 31,4 km/h (5 Bft)
11/05/2008 16:00 23,1 C 34 % 1012,3 hPa 0,0 l/m 21,5 km/h (4 Bft) E-NE 0,97 h 0,737 mm 541 W/m 6,3 C 23,1 C 29,9 km/h (5 Bft)
11/05/2008 17:00 21,8 C 39 % 1012,3 hPa 0,0 l/m 15,2 km/h (3 Bft) E 1,00 h 0,533 mm 365 W/m 7,3 C 21,8 C 22,6 km/h (4 Bft)
11/05/2008 18:00 20,7 C 52 % 1012,6 hPa 0,0 l/m 4,3 km/h (1 Bft) E 0,47 h 0,356 mm 231 W/m 10,4 C 20,7 C 7,7 km/h (2 Bft)
11/05/2008 19:00 19,1 C 58 % 1012,9 hPa 0,0 l/m 6,5 km/h (2 Bft) S 0,10 h 0,178 mm 100 W/m 10,6 C 19,1 C 9,4 km/h (2 Bft)
11/05/2008 20:00 17,6 C 63 % 1013,4 hPa 0,0 l/m 4,9 km/h (1 Bft) S-SO 0,10 h 0,102 mm 29 W/m 10,4 C 17,6 C 6,8 km/h (2 Bft)
11/05/2008 21:00 16,6 C 67 % 1013,8 hPa 0,0 l/m 3,4 km/h (1 Bft) NO 0,00 h 0,051 mm 0 W/m 10,4 C 16,6 C 5,1 km/h (1 Bft)
11/05/2008 22:00 15,9 C 70 % 1013,6 hPa 0,0 l/m 3,6 km/h (1 Bft) N-NO 0,00 h 0,025 mm 0 W/m 10,3 C 15,9 C 6,3 km/h (2 Bft)
11/05/2008 23:00 15,2 C 68 % 1013,1 hPa 0,0 l/m 3,5 km/h (1 Bft) S-SO 0,00 h 0,051 mm 0 W/m 9,2 C 15,2 C 5,8 km/h (2 Bft)
Min-Date _ 07/05/08 10/05/08 10/05/08 - 05/05/08 - - - - 06/05/08 07/05/08 05/05/08
_ Min-Heure 02:52 15:59 16:30 - 00:00 - - - - 18:41 02:52 00:00
Minimum _ 12,2 C 29 % 1010,1 hPa - 0,0 km/h (0 Bft) - - - - 2,5 C 12,2 C 0,0 km/h (0 Bft)
Max-Date _ 10/05/08 06/05/08 06/05/08 05/05/08 10/05/08 - 05/05/08 10/05/08 11/05/08 06/05/08 10/05/08 10/05/08
_ Max-Heure 16:04 00:22 11:45 20:01 11:45 - 06:29 15:00 14:09 10:33 16:04 13:01
Maximum _ 24,5 C 94 % 1019,4 hPa 3,6 l/m 43,5 km/h
E-NE (6 Bft)
- 0,02 h 0,864 mm 1060 W/m 14,0 C 24,5 C 59,5 km/h
E-NE (7 Bft)
Moyenne _ 18,1 C 56 % 1014,7 hPa #8,2 l/m 6,9 km/h (2 Bft) E-NE #72:34 h #38,221 mm 447 W/m 8,7 C 18,1 C 10,3 km/h (2 Bft)
Roquefort les pins